sensor_id;sensor_type;location;lat;lon;timestamp;temperature;humidity
16736;DHT22;17990;49.548;9.730;2022-09-09T00:01:23;13.30;99.90
16736;DHT22;17990;49.548;9.730;2022-09-09T00:04:00;13.40;99.90
16736;DHT22;17990;49.548;9.730;2022-09-09T00:06:32;13.50;99.90
16736;DHT22;17990;49.548;9.730;2022-09-09T00:09:12;13.60;99.90
16736;DHT22;17990;49.548;9.730;2022-09-09T00:11:46;13.70;99.90
16736;DHT22;17990;49.548;9.730;2022-09-09T00:14:22;13.70;99.90
16736;DHT22;17990;49.548;9.730;2022-09-09T00:17:01;13.90;99.90
16736;DHT22;17990;49.548;9.730;2022-09-09T00:19:35;13.90;99.90
16736;DHT22;17990;49.548;9.730;2022-09-09T00:22:15;14.00;99.90
16736;DHT22;17990;49.548;9.730;2022-09-09T00:24:44;14.00;99.90
16736;DHT22;17990;49.548;9.730;2022-09-09T00:27:18;13.80;99.90
16736;DHT22;17990;49.548;9.730;2022-09-09T00:29:53;13.70;99.90
16736;DHT22;17990;49.548;9.730;2022-09-09T00:32:24;13.70;99.90
16736;DHT22;17990;49.548;9.730;2022-09-09T00:34:58;13.80;99.90
16736;DHT22;17990;49.548;9.730;2022-09-09T00:37:27;13.90;99.90
16736;DHT22;17990;49.548;9.730;2022-09-09T00:39:59;13.90;99.90
16736;DHT22;17990;49.548;9.730;2022-09-09T00:42:37;13.90;99.90
16736;DHT22;17990;49.548;9.730;2022-09-09T00:45:19;13.80;99.90
16736;DHT22;17990;49.548;9.730;2022-09-09T00:47:58;13.70;99.90
16736;DHT22;17990;49.548;9.730;2022-09-09T00:50:45;13.60;99.90
16736;DHT22;17990;49.548;9.730;2022-09-09T00:53:27;13.60;99.90
16736;DHT22;17990;49.548;9.730;2022-09-09T00:56:06;13.70;99.90
16736;DHT22;17990;49.548;9.730;2022-09-09T00:58:38;13.80;99.90
16736;DHT22;17990;49.548;9.730;2022-09-09T01:01:10;13.80;99.90
16736;DHT22;17990;49.548;9.730;2022-09-09T01:03:44;13.70;99.90
16736;DHT22;17990;49.548;9.730;2022-09-09T01:06:20;13.70;99.90
16736;DHT22;17990;49.548;9.730;2022-09-09T01:09:04;13.70;99.90
16736;DHT22;17990;49.548;9.730;2022-09-09T01:11:47;13.70;99.90
16736;DHT22;17990;49.548;9.730;2022-09-09T01:14:32;13.70;99.90
16736;DHT22;17990;49.548;9.730;2022-09-09T01:17:12;13.70;99.90
16736;DHT22;17990;49.548;9.730;2022-09-09T01:19:53;13.70;99.90
16736;DHT22;17990;49.548;9.730;2022-09-09T01:22:33;13.70;99.90
16736;DHT22;17990;49.548;9.730;2022-09-09T01:25:28;13.70;99.90
16736;DHT22;17990;49.548;9.730;2022-09-09T01:27:59;13.80;99.90
16736;DHT22;17990;49.548;9.730;2022-09-09T01:30:28;13.80;99.90
16736;DHT22;17990;49.548;9.730;2022-09-09T01:32:56;13.80;99.90
16736;DHT22;17990;49.548;9.730;2022-09-09T01:35:43;13.80;99.90
16736;DHT22;17990;49.548;9.730;2022-09-09T01:38:17;13.80;99.90
16736;DHT22;17990;49.548;9.730;2022-09-09T01:40:44;13.80;99.90
16736;DHT22;17990;49.548;9.730;2022-09-09T01:43:13;13.80;99.90
16736;DHT22;17990;49.548;9.730;2022-09-09T01:45:41;13.80;99.90
16736;DHT22;17990;49.548;9.730;2022-09-09T01:48:09;13.90;99.90
16736;DHT22;17990;49.548;9.730;2022-09-09T01:50:36;14.00;99.90
16736;DHT22;17990;49.548;9.730;2022-09-09T01:53:04;13.90;99.90
16736;DHT22;17990;49.548;9.730;2022-09-09T01:55:33;13.80;99.90
16736;DHT22;17990;49.548;9.730;2022-09-09T01:58:14;13.70;99.90
16736;DHT22;17990;49.548;9.730;2022-09-09T02:00:53;13.70;99.90
16736;DHT22;17990;49.548;9.730;2022-09-09T02:03:27;13.70;99.90
16736;DHT22;17990;49.548;9.730;2022-09-09T02:06:00;13.70;99.90
16736;DHT22;17990;49.548;9.730;2022-09-09T02:08:39;13.70;99.90
16736;DHT22;17990;49.548;9.730;2022-09-09T02:11:12;13.70;99.90
16736;DHT22;17990;49.548;9.730;2022-09-09T02:13:43;13.70;99.90
16736;DHT22;17990;49.548;9.730;2022-09-09T02:16:14;13.70;99.90
16736;DHT22;17990;49.548;9.730;2022-09-09T02:18:48;13.70;99.90
16736;DHT22;17990;49.548;9.730;2022-09-09T02:21:17;13.70;99.90
16736;DHT22;17990;49.548;9.730;2022-09-09T02:23:47;13.70;99.90
16736;DHT22;17990;49.548;9.730;2022-09-09T02:26:19;13.70;99.90
16736;DHT22;17990;49.548;9.730;2022-09-09T02:28:49;13.70;99.90
16736;DHT22;17990;49.548;9.730;2022-09-09T02:31:20;13.70;99.90
16736;DHT22;17990;49.548;9.730;2022-09-09T02:33:52;13.70;99.90
16736;DHT22;17990;49.548;9.730;2022-09-09T02:36:23;13.80;99.90
16736;DHT22;17990;49.548;9.730;2022-09-09T02:38:51;13.80;99.90
16736;DHT22;17990;49.548;9.730;2022-09-09T02:41:22;13.80;99.90
16736;DHT22;17990;49.548;9.730;2022-09-09T02:43:53;13.80;99.90
16736;DHT22;17990;49.548;9.730;2022-09-09T02:46:32;13.80;99.90
16736;DHT22;17990;49.548;9.730;2022-09-09T02:49:09;13.90;99.90
16736;DHT22;17990;49.548;9.730;2022-09-09T02:51:44;13.90;99.90
16736;DHT22;17990;49.548;9.730;2022-09-09T02:54:24;13.80;99.90
16736;DHT22;17990;49.548;9.730;2022-09-09T02:57:01;13.90;99.90
16736;DHT22;17990;49.548;9.730;2022-09-09T02:59:31;13.90;99.90
16736;DHT22;17990;49.548;9.730;2022-09-09T03:01:59;13.90;99.90
16736;DHT22;17990;49.548;9.730;2022-09-09T03:04:26;14.00;99.90
16736;DHT22;17990;49.548;9.730;2022-09-09T03:06:53;14.00;99.90
16736;DHT22;17990;49.548;9.730;2022-09-09T03:09:21;14.00;99.90
16736;DHT22;17990;49.548;9.730;2022-09-09T03:11:48;14.00;99.90
16736;DHT22;17990;49.548;9.730;2022-09-09T03:14:15;14.00;99.90
16736;DHT22;17990;49.548;9.730;2022-09-09T03:16:43;14.00;99.90
16736;DHT22;17990;49.548;9.730;2022-09-09T03:19:11;14.10;99.90
16736;DHT22;17990;49.548;9.730;2022-09-09T03:21:38;14.10;99.90
16736;DHT22;17990;49.548;9.730;2022-09-09T03:24:05;14.10;99.90
16736;DHT22;17990;49.548;9.730;2022-09-09T03:26:32;14.10;99.90
16736;DHT22;17990;49.548;9.730;2022-09-09T03:28:59;14.10;99.90
16736;DHT22;17990;49.548;9.730;2022-09-09T03:31:27;14.10;99.90
16736;DHT22;17990;49.548;9.730;2022-09-09T03:33:56;14.10;99.90
16736;DHT22;17990;49.548;9.730;2022-09-09T03:36:24;14.20;99.90
16736;DHT22;17990;49.548;9.730;2022-09-09T03:38:54;14.30;99.90
16736;DHT22;17990;49.548;9.730;2022-09-09T03:41:21;14.30;99.90
16736;DHT22;17990;49.548;9.730;2022-09-09T03:43:49;14.30;99.90
16736;DHT22;17990;49.548;9.730;2022-09-09T03:46:16;14.40;99.90
16736;DHT22;17990;49.548;9.730;2022-09-09T03:48:43;14.40;99.90
16736;DHT22;17990;49.548;9.730;2022-09-09T03:51:12;14.30;99.90
16736;DHT22;17990;49.548;9.730;2022-09-09T03:53:39;14.30;99.90
16736;DHT22;17990;49.548;9.730;2022-09-09T03:56:06;14.30;99.90
16736;DHT22;17990;49.548;9.730;2022-09-09T03:58:34;14.30;99.90
16736;DHT22;17990;49.548;9.730;2022-09-09T04:01:02;14.30;99.90
16736;DHT22;17990;49.548;9.730;2022-09-09T04:03:31;14.10;99.90
16736;DHT22;17990;49.548;9.730;2022-09-09T04:06:00;14.10;99.90
16736;DHT22;17990;49.548;9.730;2022-09-09T04:08:30;14.00;99.90
16736;DHT22;17990;49.548;9.730;2022-09-09T04:10:58;14.00;99.90
16736;DHT22;17990;49.548;9.730;2022-09-09T04:13:27;14.00;99.90
16736;DHT22;17990;49.548;9.730;2022-09-09T04:15:56;14.00;99.90
16736;DHT22;17990;49.548;9.730;2022-09-09T04:18:24;14.00;99.90
16736;DHT22;17990;49.548;9.730;2022-09-09T04:20:53;14.00;99.90
16736;DHT22;17990;49.548;9.730;2022-09-09T04:23:23;14.00;99.90
16736;DHT22;17990;49.548;9.730;2022-09-09T04:25:54;13.90;99.90
16736;DHT22;17990;49.548;9.730;2022-09-09T04:28:23;13.80;99.90
16736;DHT22;17990;49.548;9.730;2022-09-09T04:30:51;13.70;99.90
16736;DHT22;17990;49.548;9.730;2022-09-09T04:33:19;13.60;99.90
16736;DHT22;17990;49.548;9.730;2022-09-09T04:35:47;13.60;99.90
16736;DHT22;17990;49.548;9.730;2022-09-09T04:38:16;13.60;99.90
16736;DHT22;17990;49.548;9.730;2022-09-09T04:40:45;13.70;99.90
16736;DHT22;17990;49.548;9.730;2022-09-09T04:43:14;13.80;99.90
16736;DHT22;17990;49.548;9.730;2022-09-09T04:45:42;13.80;99.90
16736;DHT22;17990;49.548;9.730;2022-09-09T04:48:09;13.90;99.90
16736;DHT22;17990;49.548;9.730;2022-09-09T04:50:36;14.00;99.90
16736;DHT22;17990;49.548;9.730;2022-09-09T04:53:04;14.10;99.90
16736;DHT22;17990;49.548;9.730;2022-09-09T04:55:31;14.10;99.90
16736;DHT22;17990;49.548;9.730;2022-09-09T04:58:03;14.10;99.90
16736;DHT22;17990;49.548;9.730;2022-09-09T05:00:32;14.10;99.90
16736;DHT22;17990;49.548;9.730;2022-09-09T05:03:02;14.10;99.90
16736;DHT22;17990;49.548;9.730;2022-09-09T05:05:30;14.20;99.90
16736;DHT22;17990;49.548;9.730;2022-09-09T05:08:01;14.20;99.90
16736;DHT22;17990;49.548;9.730;2022-09-09T05:10:29;14.30;99.90
16736;DHT22;17990;49.548;9.730;2022-09-09T05:12:56;14.40;99.90
16736;DHT22;17990;49.548;9.730;2022-09-09T05:15:22;14.50;99.90
16736;DHT22;17990;49.548;9.730;2022-09-09T05:17:51;14.50;99.90
16736;DHT22;17990;49.548;9.730;2022-09-09T05:20:18;14.60;99.90
16736;DHT22;17990;49.548;9.730;2022-09-09T05:22:45;14.60;99.90
16736;DHT22;17990;49.548;9.730;2022-09-09T05:25:12;14.70;99.90
16736;DHT22;17990;49.548;9.730;2022-09-09T05:27:39;14.80;99.90
16736;DHT22;17990;49.548;9.730;2022-09-09T05:30:07;14.80;99.90
16736;DHT22;17990;49.548;9.730;2022-09-09T05:32:35;14.80;99.90
16736;DHT22;17990;49.548;9.730;2022-09-09T05:35:04;14.80;99.90
16736;DHT22;17990;49.548;9.730;2022-09-09T05:37:31;14.90;99.90
16736;DHT22;17990;49.548;9.730;2022-09-09T05:39:58;15.00;99.90
16736;DHT22;17990;49.548;9.730;2022-09-09T05:42:29;15.10;99.90
16736;DHT22;17990;49.548;9.730;2022-09-09T05:44:57;15.20;99.90
16736;DHT22;17990;49.548;9.730;2022-09-09T05:47:24;15.30;99.90
16736;DHT22;17990;49.548;9.730;2022-09-09T05:49:53;15.40;99.90
16736;DHT22;17990;49.548;9.730;2022-09-09T05:52:22;15.50;99.90
16736;DHT22;17990;49.548;9.730;2022-09-09T05:54:49;15.70;99.90
16736;DHT22;17990;49.548;9.730;2022-09-09T05:57:16;15.70;99.90
16736;DHT22;17990;49.548;9.730;2022-09-09T05:59:44;15.70;99.90
16736;DHT22;17990;49.548;9.730;2022-09-09T06:02:11;15.70;99.90
16736;DHT22;17990;49.548;9.730;2022-09-09T06:04:39;15.80;99.90
16736;DHT22;17990;49.548;9.730;2022-09-09T06:07:06;15.80;99.90
16736;DHT22;17990;49.548;9.730;2022-09-09T06:09:34;15.90;99.90
16736;DHT22;17990;49.548;9.730;2022-09-09T06:12:01;16.00;99.90
16736;DHT22;17990;49.548;9.730;2022-09-09T06:14:28;16.30;99.90
16736;DHT22;17990;49.548;9.730;2022-09-09T06:16:55;16.50;99.90
16736;DHT22;17990;49.548;9.730;2022-09-09T06:19:22;16.70;99.90
16736;DHT22;17990;49.548;9.730;2022-09-09T06:21:52;16.90;99.90
16736;DHT22;17990;49.548;9.730;2022-09-09T06:24:20;17.10;99.90
16736;DHT22;17990;49.548;9.730;2022-09-09T06:26:48;17.30;99.90
16736;DHT22;17990;49.548;9.730;2022-09-09T06:29:15;17.70;99.90
16736;DHT22;17990;49.548;9.730;2022-09-09T06:31:42;19.40;99.90
16736;DHT22;17990;49.548;9.730;2022-09-09T06:34:09;19.10;99.90
16736;DHT22;17990;49.548;9.730;2022-09-09T06:36:37;18.40;99.90
16736;DHT22;17990;49.548;9.730;2022-09-09T06:39:05;18.10;99.90
16736;DHT22;17990;49.548;9.730;2022-09-09T06:41:34;18.10;99.90
16736;DHT22;17990;49.548;9.730;2022-09-09T06:44:02;18.10;99.90
16736;DHT22;17990;49.548;9.730;2022-09-09T06:46:31;18.20;99.90
16736;DHT22;17990;49.548;9.730;2022-09-09T06:48:59;18.00;99.90
16736;DHT22;17990;49.548;9.730;2022-09-09T06:51:27;17.80;99.90
16736;DHT22;17990;49.548;9.730;2022-09-09T06:53:56;17.70;99.90
16736;DHT22;17990;49.548;9.730;2022-09-09T06:56:26;19.20;99.90
16736;DHT22;17990;49.548;9.730;2022-09-09T06:58:55;20.30;99.90
16736;DHT22;17990;49.548;9.730;2022-09-09T07:01:26;22.10;99.90
16736;DHT22;17990;49.548;9.730;2022-09-09T07:03:55;26.50;99.90
16736;DHT22;17990;49.548;9.730;2022-09-09T07:06:25;28.70;96.30
16736;DHT22;17990;49.548;9.730;2022-09-09T07:08:55;29.70;91.40
16736;DHT22;17990;49.548;9.730;2022-09-09T07:11:24;29.90;86.60
16736;DHT22;17990;49.548;9.730;2022-09-09T07:13:53;30.30;82.30
16736;DHT22;17990;49.548;9.730;2022-09-09T07:16:21;28.50;86.30
16736;DHT22;17990;49.548;9.730;2022-09-09T07:18:52;30.00;82.30
16736;DHT22;17990;49.548;9.730;2022-09-09T07:21:23;26.70;88.50
16736;DHT22;17990;49.548;9.730;2022-09-09T07:23:52;24.70;92.90
16736;DHT22;17990;49.548;9.730;2022-09-09T07:26:21;23.20;96.10
16736;DHT22;17990;49.548;9.730;2022-09-09T07:28:49;22.60;97.80
16736;DHT22;17990;49.548;9.730;2022-09-09T07:31:17;24.00;95.80
16736;DHT22;17990;49.548;9.730;2022-09-09T07:33:46;23.90;96.20
16736;DHT22;17990;49.548;9.730;2022-09-09T07:36:16;25.10;94.10
16736;DHT22;17990;49.548;9.730;2022-09-09T07:38:49;24.40;94.90
16736;DHT22;17990;49.548;9.730;2022-09-09T07:41:21;23.70;96.00
16736;DHT22;17990;49.548;9.730;2022-09-09T07:43:49;23.40;97.10
16736;DHT22;17990;49.548;9.730;2022-09-09T07:46:18;22.60;97.80
16736;DHT22;17990;49.548;9.730;2022-09-09T07:48:49;22.60;98.30
16736;DHT22;17990;49.548;9.730;2022-09-09T07:51:20;22.70;98.30
16736;DHT22;17990;49.548;9.730;2022-09-09T07:53:52;22.60;98.90
16736;DHT22;17990;49.548;9.730;2022-09-09T07:56:20;22.50;99.30
16736;DHT22;17990;49.548;9.730;2022-09-09T07:58:48;22.40;99.60
16736;DHT22;17990;49.548;9.730;2022-09-09T08:01:18;22.60;99.40
16736;DHT22;17990;49.548;9.730;2022-09-09T08:03:52;22.90;98.80
16736;DHT22;17990;49.548;9.730;2022-09-09T08:06:21;23.10;98.60
16736;DHT22;17990;49.548;9.730;2022-09-09T08:08:51;23.60;97.80
16736;DHT22;17990;49.548;9.730;2022-09-09T08:11:18;23.80;97.70
16736;DHT22;17990;49.548;9.730;2022-09-09T08:13:45;22.90;99.00
16736;DHT22;17990;49.548;9.730;2022-09-09T08:16:15;22.60;99.80
16736;DHT22;17990;49.548;9.730;2022-09-09T08:18:43;22.40;99.90
16736;DHT22;17990;49.548;9.730;2022-09-09T08:21:12;22.40;99.90
16736;DHT22;17990;49.548;9.730;2022-09-09T08:23:42;22.60;99.90
16736;DHT22;17990;49.548;9.730;2022-09-09T08:26:12;22.40;99.90
16736;DHT22;17990;49.548;9.730;2022-09-09T08:28:40;22.60;99.90
16736;DHT22;17990;49.548;9.730;2022-09-09T08:31:09;22.60;99.90
16736;DHT22;17990;49.548;9.730;2022-09-09T08:33:38;22.90;99.90
16736;DHT22;17990;49.548;9.730;2022-09-09T08:36:08;23.00;99.90
16736;DHT22;17990;49.548;9.730;2022-09-09T08:38:37;22.80;99.90
16736;DHT22;17990;49.548;9.730;2022-09-09T08:41:26;22.80;99.90
16736;DHT22;17990;49.548;9.730;2022-09-09T08:44:03;22.60;99.90
16736;DHT22;17990;49.548;9.730;2022-09-09T08:46:39;22.90;99.90
16736;DHT22;17990;49.548;9.730;2022-09-09T08:49:20;23.20;99.90
16736;DHT22;17990;49.548;9.730;2022-09-09T08:51:58;23.20;99.90
16736;DHT22;17990;49.548;9.730;2022-09-09T08:54:30;23.30;99.90
16736;DHT22;17990;49.548;9.730;2022-09-09T08:57:01;23.10;99.90
16736;DHT22;17990;49.548;9.730;2022-09-09T08:59:28;23.00;99.90
16736;DHT22;17990;49.548;9.730;2022-09-09T09:02:00;23.00;99.90
16736;DHT22;17990;49.548;9.730;2022-09-09T09:04:38;23.00;99.90
16736;DHT22;17990;49.548;9.730;2022-09-09T09:07:21;23.10;99.90
16736;DHT22;17990;49.548;9.730;2022-09-09T09:10:00;23.50;99.90
16736;DHT22;17990;49.548;9.730;2022-09-09T09:12:37;23.60;99.80
16736;DHT22;17990;49.548;9.730;2022-09-09T09:15:12;23.40;99.90
16736;DHT22;17990;49.548;9.730;2022-09-09T09:17:49;23.30;99.90
16736;DHT22;17990;49.548;9.730;2022-09-09T09:20:20;23.30;99.90
16736;DHT22;17990;49.548;9.730;2022-09-09T09:22:52;23.30;99.90
16736;DHT22;17990;49.548;9.730;2022-09-09T09:25:21;23.20;99.90
16736;DHT22;17990;49.548;9.730;2022-09-09T09:27:57;23.00;99.90
16736;DHT22;17990;49.548;9.730;2022-09-09T09:30:29;22.70;99.90
16736;DHT22;17990;49.548;9.730;2022-09-09T09:33:00;22.60;99.90
16736;DHT22;17990;49.548;9.730;2022-09-09T09:35:29;22.70;99.90
16736;DHT22;17990;49.548;9.730;2022-09-09T09:37:55;23.00;99.90
16736;DHT22;17990;49.548;9.730;2022-09-09T09:40:23;23.30;99.90
16736;DHT22;17990;49.548;9.730;2022-09-09T09:42:54;23.60;99.60
16736;DHT22;17990;49.548;9.730;2022-09-09T09:45:28;23.70;98.90
16736;DHT22;17990;49.548;9.730;2022-09-09T09:48:00;23.60;98.80
16736;DHT22;17990;49.548;9.730;2022-09-09T09:50:29;23.80;98.80
16736;DHT22;17990;49.548;9.730;2022-09-09T09:52:58;24.00;98.10
16736;DHT22;17990;49.548;9.730;2022-09-09T09:55:28;24.20;97.80
16736;DHT22;17990;49.548;9.730;2022-09-09T09:58:03;24.30;97.80
16736;DHT22;17990;49.548;9.730;2022-09-09T10:00:32;24.30;97.10
16736;DHT22;17990;49.548;9.730;2022-09-09T10:03:01;24.40;97.60
16736;DHT22;17990;49.548;9.730;2022-09-09T10:05:29;24.30;97.50
16736;DHT22;17990;49.548;9.730;2022-09-09T10:08:04;24.30;97.10
16736;DHT22;17990;49.548;9.730;2022-09-09T10:10:41;24.40;96.90
16736;DHT22;17990;49.548;9.730;2022-09-09T10:13:18;24.20;96.50
16736;DHT22;17990;49.548;9.730;2022-09-09T10:15:57;24.20;97.00
16736;DHT22;17990;49.548;9.730;2022-09-09T10:18:41;24.20;96.50
16736;DHT22;17990;49.548;9.730;2022-09-09T10:21:24;23.80;96.90
16736;DHT22;17990;49.548;9.730;2022-09-09T10:24:22;23.30;96.70
16736;DHT22;17990;49.548;9.730;2022-09-09T10:27:02;22.80;98.50
16736;DHT22;17990;49.548;9.730;2022-09-09T10:29:44;22.30;99.90
16736;DHT22;17990;49.548;9.730;2022-09-09T10:32:42;21.70;99.90
16736;DHT22;17990;49.548;9.730;2022-09-09T10:35:24;20.40;99.90
16736;DHT22;17990;49.548;9.730;2022-09-09T10:38:09;19.60;99.90
16736;DHT22;17990;49.548;9.730;2022-09-09T10:40:43;19.30;99.90
16736;DHT22;17990;49.548;9.730;2022-09-09T10:43:27;19.20;99.90
16736;DHT22;17990;49.548;9.730;2022-09-09T10:46:08;19.30;99.90
16736;DHT22;17990;49.548;9.730;2022-09-09T10:48:54;19.60;99.90
16736;DHT22;17990;49.548;9.730;2022-09-09T10:51:33;19.80;99.90
16736;DHT22;17990;49.548;9.730;2022-09-09T10:54:19;20.00;99.90
16736;DHT22;17990;49.548;9.730;2022-09-09T10:56:55;20.10;99.90
16736;DHT22;17990;49.548;9.730;2022-09-09T10:59:28;19.90;99.90
16736;DHT22;17990;49.548;9.730;2022-09-09T11:02:02;19.80;99.90
16736;DHT22;17990;49.548;9.730;2022-09-09T11:04:37;20.00;99.90
16736;DHT22;17990;49.548;9.730;2022-09-09T11:07:10;20.60;99.90
16736;DHT22;17990;49.548;9.730;2022-09-09T11:09:41;21.10;99.90
16736;DHT22;17990;49.548;9.730;2022-09-09T11:12:15;20.80;99.90
16736;DHT22;17990;49.548;9.730;2022-09-09T11:14:48;20.80;99.90
16736;DHT22;17990;49.548;9.730;2022-09-09T11:17:22;21.20;99.90
16736;DHT22;17990;49.548;9.730;2022-09-09T11:19:51;21.30;99.90
16736;DHT22;17990;49.548;9.730;2022-09-09T11:22:22;21.60;99.90
16736;DHT22;17990;49.548;9.730;2022-09-09T11:24:58;21.50;99.90
16736;DHT22;17990;49.548;9.730;2022-09-09T11:27:31;21.50;99.90
16736;DHT22;17990;49.548;9.730;2022-09-09T11:30:15;21.30;99.90
16736;DHT22;17990;49.548;9.730;2022-09-09T11:32:59;21.40;99.90
16736;DHT22;17990;49.548;9.730;2022-09-09T11:35:40;21.30;99.90
16736;DHT22;17990;49.548;9.730;2022-09-09T11:38:18;21.20;99.90
16736;DHT22;17990;49.548;9.730;2022-09-09T11:40:46;21.40;99.90
16736;DHT22;17990;49.548;9.730;2022-09-09T11:43:16;21.70;99.90
16736;DHT22;17990;49.548;9.730;2022-09-09T11:45:51;21.90;99.90
16736;DHT22;17990;49.548;9.730;2022-09-09T11:48:27;22.30;99.90
16736;DHT22;17990;49.548;9.730;2022-09-09T11:51:03;22.40;99.90
16736;DHT22;17990;49.548;9.730;2022-09-09T11:53:33;22.60;99.90
16736;DHT22;17990;49.548;9.730;2022-09-09T11:56:10;22.60;99.90
16736;DHT22;17990;49.548;9.730;2022-09-09T11:58:43;22.60;99.90
16736;DHT22;17990;49.548;9.730;2022-09-09T12:01:33;22.50;99.90
16736;DHT22;17990;49.548;9.730;2022-09-09T12:07:23;22.80;99.90
16736;DHT22;17990;49.548;9.730;2022-09-09T12:09:58;23.10;99.90
16736;DHT22;17990;49.548;9.730;2022-09-09T12:12:31;23.10;99.90
16736;DHT22;17990;49.548;9.730;2022-09-09T12:15:18;23.10;99.90
16736;DHT22;17990;49.548;9.730;2022-09-09T12:17:49;23.00;99.90
16736;DHT22;17990;49.548;9.730;2022-09-09T12:20:20;22.90;99.90
16736;DHT22;17990;49.548;9.730;2022-09-09T12:23:15;22.90;99.90
16736;DHT22;17990;49.548;9.730;2022-09-09T12:26:18;23.10;99.90
16736;DHT22;17990;49.548;9.730;2022-09-09T12:29:12;23.10;99.90
16736;DHT22;17990;49.548;9.730;2022-09-09T12:31:50;23.20;99.90
16736;DHT22;17990;49.548;9.730;2022-09-09T12:34:30;23.40;99.90
16736;DHT22;17990;49.548;9.730;2022-09-09T12:37:11;24.00;99.90
16736;DHT22;17990;49.548;9.730;2022-09-09T12:39:45;24.20;99.90
16736;DHT22;17990;49.548;9.730;2022-09-09T12:42:17;24.00;99.90
16736;DHT22;17990;49.548;9.730;2022-09-09T12:44:52;23.60;99.90
16736;DHT22;17990;49.548;9.730;2022-09-09T12:47:21;23.80;99.90
16736;DHT22;17990;49.548;9.730;2022-09-09T12:49:52;24.40;98.40
16736;DHT22;17990;49.548;9.730;2022-09-09T12:52:27;24.60;98.20
16736;DHT22;17990;49.548;9.730;2022-09-09T12:54:57;24.90;98.00
16736;DHT22;17990;49.548;9.730;2022-09-09T12:57:26;24.90;97.20
16736;DHT22;17990;49.548;9.730;2022-09-09T13:00:08;24.80;96.50
16736;DHT22;17990;49.548;9.730;2022-09-09T13:02:51;24.50;96.20
16736;DHT22;17990;49.548;9.730;2022-09-09T13:05:22;24.40;95.50
16736;DHT22;17990;49.548;9.730;2022-09-09T13:07:59;24.10;96.10
16736;DHT22;17990;49.548;9.730;2022-09-09T13:10:29;24.10;95.80
16736;DHT22;17990;49.548;9.730;2022-09-09T13:12:58;24.30;95.40
16736;DHT22;17990;49.548;9.730;2022-09-09T13:15:28;24.50;95.00
16736;DHT22;17990;49.548;9.730;2022-09-09T13:18:04;25.00;93.90
16736;DHT22;17990;49.548;9.730;2022-09-09T13:20:33;25.30;93.60
16736;DHT22;17990;49.548;9.730;2022-09-09T13:23:02;25.50;92.90
16736;DHT22;17990;49.548;9.730;2022-09-09T13:25:29;25.50;90.80
16736;DHT22;17990;49.548;9.730;2022-09-09T13:27:58;25.60;88.60
16736;DHT22;17990;49.548;9.730;2022-09-09T13:30:28;25.50;87.30
16736;DHT22;17990;49.548;9.730;2022-09-09T13:35:51;24.90;86.00
16736;DHT22;17990;49.548;9.730;2022-09-09T13:38:21;24.60;86.20
16736;DHT22;17990;49.548;9.730;2022-09-09T13:40:55;24.50;87.50
16736;DHT22;17990;49.548;9.730;2022-09-09T13:43:24;24.30;87.50
16736;DHT22;17990;49.548;9.730;2022-09-09T13:45:56;24.10;88.80
16736;DHT22;17990;49.548;9.730;2022-09-09T13:48:25;24.10;89.80
16736;DHT22;17990;49.548;9.730;2022-09-09T13:51:01;24.00;90.50
16736;DHT22;17990;49.548;9.730;2022-09-09T13:53:31;23.80;92.40
16736;DHT22;17990;49.548;9.730;2022-09-09T13:55:59;23.50;94.00
16736;DHT22;17990;49.548;9.730;2022-09-09T13:58:26;23.40;94.80
16736;DHT22;17990;49.548;9.730;2022-09-09T14:00:53;23.40;95.30
16736;DHT22;17990;49.548;9.730;2022-09-09T14:03:21;23.40;95.50
16736;DHT22;17990;49.548;9.730;2022-09-09T14:05:48;23.90;95.30
16736;DHT22;17990;49.548;9.730;2022-09-09T14:08:21;24.20;95.00
16736;DHT22;17990;49.548;9.730;2022-09-09T14:10:52;24.10;94.50
16736;DHT22;17990;49.548;9.730;2022-09-09T14:13:20;24.00;95.10
16736;DHT22;17990;49.548;9.730;2022-09-09T14:15:48;24.10;95.40
16736;DHT22;17990;49.548;9.730;2022-09-09T14:18:16;24.00;95.40
16736;DHT22;17990;49.548;9.730;2022-09-09T14:20:43;23.40;95.20
16736;DHT22;17990;49.548;9.730;2022-09-09T14:23:11;23.20;94.70
16736;DHT22;17990;49.548;9.730;2022-09-09T14:25:40;23.10;94.70
16736;DHT22;17990;49.548;9.730;2022-09-09T14:28:10;23.00;94.90
16736;DHT22;17990;49.548;9.730;2022-09-09T14:30:39;22.90;95.40
16736;DHT22;17990;49.548;9.730;2022-09-09T14:33:06;22.80;95.50
16736;DHT22;17990;49.548;9.730;2022-09-09T14:35:33;22.60;96.40
16736;DHT22;17990;49.548;9.730;2022-09-09T14:38:01;22.40;98.30
16736;DHT22;17990;49.548;9.730;2022-09-09T14:40:29;22.10;99.90
16736;DHT22;17990;49.548;9.730;2022-09-09T14:42:56;21.60;99.90
16736;DHT22;17990;49.548;9.730;2022-09-09T14:45:25;21.20;99.90
16736;DHT22;17990;49.548;9.730;2022-09-09T14:47:52;20.90;99.90
16736;DHT22;17990;49.548;9.730;2022-09-09T14:50:20;20.70;99.90
16736;DHT22;17990;49.548;9.730;2022-09-09T14:52:47;20.70;99.90
16736;DHT22;17990;49.548;9.730;2022-09-09T14:55:15;20.40;99.90
16736;DHT22;17990;49.548;9.730;2022-09-09T14:57:43;20.30;99.90
16736;DHT22;17990;49.548;9.730;2022-09-09T15:00:11;20.40;99.90
16736;DHT22;17990;49.548;9.730;2022-09-09T15:02:39;20.60;99.90
16736;DHT22;17990;49.548;9.730;2022-09-09T15:05:07;20.90;99.90
16736;DHT22;17990;49.548;9.730;2022-09-09T15:07:34;21.00;99.90
16736;DHT22;17990;49.548;9.730;2022-09-09T15:10:02;20.90;99.90
16736;DHT22;17990;49.548;9.730;2022-09-09T15:12:29;21.10;99.90
16736;DHT22;17990;49.548;9.730;2022-09-09T15:14:57;21.10;99.90
16736;DHT22;17990;49.548;9.730;2022-09-09T15:17:23;21.30;99.90
16736;DHT22;17990;49.548;9.730;2022-09-09T15:19:53;21.40;99.90
16736;DHT22;17990;49.548;9.730;2022-09-09T15:22:21;21.60;99.90
16736;DHT22;17990;49.548;9.730;2022-09-09T15:24:49;21.80;99.90
16736;DHT22;17990;49.548;9.730;2022-09-09T15:27:16;21.80;99.90
16736;DHT22;17990;49.548;9.730;2022-09-09T15:29:52;21.80;99.90
16736;DHT22;17990;49.548;9.730;2022-09-09T15:32:20;22.00;99.90
16736;DHT22;17990;49.548;9.730;2022-09-09T15:34:47;22.00;99.90
16736;DHT22;17990;49.548;9.730;2022-09-09T15:37:18;22.00;99.90
16736;DHT22;17990;49.548;9.730;2022-09-09T15:39:44;22.20;99.90
16736;DHT22;17990;49.548;9.730;2022-09-09T15:42:11;22.20;99.90
16736;DHT22;17990;49.548;9.730;2022-09-09T15:44:39;22.20;99.90
16736;DHT22;17990;49.548;9.730;2022-09-09T15:47:10;22.00;99.90
16736;DHT22;17990;49.548;9.730;2022-09-09T15:49:39;21.80;99.90
16736;DHT22;17990;49.548;9.730;2022-09-09T15:52:06;21.50;99.90
16736;DHT22;17990;49.548;9.730;2022-09-09T15:54:35;21.50;99.90
16736;DHT22;17990;49.548;9.730;2022-09-09T15:57:05;21.60;99.90
16736;DHT22;17990;49.548;9.730;2022-09-09T15:59:34;21.50;99.90
16736;DHT22;17990;49.548;9.730;2022-09-09T16:02:01;21.40;99.90
16736;DHT22;17990;49.548;9.730;2022-09-09T16:04:28;21.30;99.90